Weather


ICAO METAR
KAPA KAPA 191053Z 15008KT 10SM SCT008 OVC015 03/02 A2996 RMK AO2 SLP129 T00330017
KASE KASE 191053Z AUTO 21007KT 10SM FEW070 00/M06 A2997 RMK AO2 SLP101 T00001061
KBJC KBJC 191052Z AUTO 07005KT 10SM OVC010 03/01 A2999 RMK AO2
KBKF KBKF 191058Z 08005KT 10SM BKN011 OVC028 02/02 A2998 RMK AO2A SLP130 T00220021
KCOS KCOS 191054Z 00000KT 10SM FEW012 BKN023 02/M01 A2998 RMK AO2 SLP146 T00221011
KCPR KCPR 191053Z 03008KT 10SM OVC016 M02/M03 A3001 RMK AO2 SLP177 T10171033
KCYS KCYS 191053Z AUTO 36013KT 10SM OVC019 M01/M04 A2996 RMK AO2 SLP132 T10061044
KDEN KDEN 191053Z 08009KT 10SM OVC015 03/01 A2997 RMK AO2 SLP122 T00280006
KEGE KEGE 191056Z AUTO 08005KT 10SM CLR M02/M03 A3000 RMK AO2 SLP168 T10221033 FZRANO
KFCS KFCS 191058Z AUTO 24005KT 9SM OVC019 04/01 A2996 RMK AO2 SLP152 T00430008 $
KFMN KFMN 191053Z AUTO 08008KT 10SM FEW120 08/M01 A2991 RMK AO2 SLP096 T00781006
KFTG KFTG 191054Z AUTO 10005KT 10SM OVC015 04/01 A2999 RMK AO2 T00360005
KGCC KGCC 191106Z AUTO 36008KT 10SM BKN007 OVC013 M01/M01 A3002 RMK AO2 CIG 005V010 T10061011
KGJT KGJT 191053Z AUTO 12014KT 10SM BKN095 OVC110 08/01 A2988 RMK AO2 SLP082 T00780011
KPUB KPUB 191053Z AUTO 00000KT 10SM CLR 02/M01 A2997 RMK AO2 SLP132 T00171011
KRAP KRAP 191052Z AUTO 33016KT 7SM OVC006 01/00 A2999 RMK AO2 UPE46 CIG 004V009 SLP176 P0000 T00060000
KRCA KRCA 191056Z AUTO 32013KT 10SM -RA OVC003 01/01 A2998 RMK AO2 CIG 002 RWY13 SLP179 P0000 T00090009 $

Surface Data
Click here.

This is a composite map contain the following analyses: radar summary (color filled areas), surface data plot (composite station model), frontal locations (in various bold lines) and pressure contours (in thin blue lines).